Time;durP1;ratioP1;P1;durP2;ratioP2;P2;SDS_P1;SDS_P2;PMS_P1;PMS_P2;Temp;Humidity;BMP_temperature;BMP_pressure;BME280_temperature;BME280_humidity;BME280_pressure;Samples;Min_cycle;Max_cycle;Signal;HPM_P1;HPM_P2
2021/01/06 00:01:20;;;;;;;34.87;19.20;;;;;;;0.56;84.26;99667.13;1763886;79;21633;-59
2021/01/06 00:03:48;;;;;;;33.37;18.10;;;;;;;0.55;84.27;99665.81;1764225;79;21755;-58
2021/01/06 00:06:16;;;;;;;31.20;17.03;;;;;;;0.56;84.26;99671.09;1739772;80;21661;-57
2021/01/06 00:08:45;;;;;;;29.10;16.93;;;;;;;0.56;84.27;99668.89;1703197;82;21219;-58
2021/01/06 00:11:13;;;;;;;32.43;18.53;;;;;;;0.57;84.28;99678.16;1763579;79;21215;-59
2021/01/06 00:13:40;;;;;;;27.83;16.63;;;;;;;0.58;84.27;99668.44;1701730;82;21907;-58
2021/01/06 00:16:07;;;;;;;30.50;17.57;;;;;;;0.57;84.32;99666.23;1766064;80;21191;-59
2021/01/06 00:18:35;;;;;;;28.40;16.47;;;;;;;0.55;84.31;99666.69;1759265;79;22098;-57
2021/01/06 00:21:02;;;;;;;33.17;16.00;;;;;;;0.54;84.31;99670.22;1763310;79;22021;-58
2021/01/06 00:23:29;;;;;;;29.13;15.43;;;;;;;0.55;84.26;99670.66;1765754;79;21143;-59
2021/01/06 00:25:58;;;;;;;26.27;14.63;;;;;;;0.55;84.34;99666.69;1762667;79;22190;-58
2021/01/06 00:28:25;;;;;;;26.57;15.40;;;;;;;0.54;84.29;99664.93;1766940;79;21246;-62
2021/01/06 00:30:56;;;;;;;27.40;15.93;;;;;;;0.55;84.34;99664.48;1767432;80;21724;-61
2021/01/06 00:33:31;;;;;;;28.70;16.57;;;;;;;0.56;84.38;99669.77;1765369;79;21121;-56
2021/01/06 00:36:11;;;;;;;31.12;17.27;;;;;;;0.56;84.38;99660.50;1763470;79;21215;-55
2021/01/06 00:38:39;;;;;;;29.40;17.47;;;;;;;0.57;84.40;99664.03;1759302;79;21198;-56
2021/01/06 00:41:06;;;;;;;26.03;14.67;;;;;;;0.59;84.33;99663.13;1754289;79;21716;-56
2021/01/06 00:43:33;;;;;;;30.67;16.03;;;;;;;0.59;84.26;99652.54;1760789;79;21183;-59
2021/01/06 00:46:01;;;;;;;20.73;12.67;;;;;;;0.60;84.27;99658.23;1757662;79;21172;-58
2021/01/06 00:48:29;;;;;;;24.50;13.67;;;;;;;0.62;84.31;99659.11;1759960;79;21513;-61
2021/01/06 00:50:57;;;;;;;23.57;15.27;;;;;;;0.61;84.27;99656.02;1759632;79;21211;-57
2021/01/06 00:53:26;;;;;;;26.30;15.57;;;;;;;0.63;84.27;99659.55;1757028;79;22229;-57
2021/01/06 00:55:56;;;;;;;31.27;16.90;;;;;;;0.63;84.24;99659.55;1756923;79;21159;-60
2021/01/06 00:58:23;;;;;;;23.07;14.73;;;;;;;0.60;84.18;99659.56;1756599;79;21251;-57
2021/01/06 01:00:53;;;;;;;24.00;15.20;;;;;;;0.61;84.20;99652.50;1757056;79;21841;-59
2021/01/06 01:03:22;;;;;;;26.00;13.90;;;;;;;0.61;84.23;99655.14;1759375;79;21962;-58
2021/01/06 01:05:51;;;;;;;20.93;13.03;;;;;;;0.63;84.24;99656.89;1754614;80;21936;-58
2021/01/06 01:08:18;;;;;;;22.97;13.70;;;;;;;0.66;84.25;99658.20;1756915;80;21219;-60
2021/01/06 01:10:47;;;;;;;22.03;14.37;;;;;;;0.69;84.20;99650.20;1757876;79;21273;-56
2021/01/06 01:13:22;;;;;;;30.20;17.00;;;;;;;0.69;84.15;99647.55;1761357;79;21223;-56
2021/01/06 01:15:52;;;;;;;25.63;15.83;;;;;;;0.68;84.11;99643.14;1756782;79;21439;-57
2021/01/06 01:18:23;;;;;;;27.47;15.50;;;;;;;0.66;84.03;99633.03;1756040;79;21511;-56
2021/01/06 01:20:53;;;;;;;26.40;15.23;;;;;;;0.64;84.02;99632.61;1755413;80;21211;-56
2021/01/06 01:23:22;;;;;;;26.10;15.07;;;;;;;0.63;84.05;99635.70;1757087;79;21176;-60
2021/01/06 01:25:50;;;;;;;26.50;14.47;;;;;;;0.66;84.09;99634.80;1763993;79;21134;-55
2021/01/06 01:28:18;;;;;;;26.83;16.53;;;;;;;0.65;84.08;99632.59;1754571;79;21385;-57
2021/01/06 01:30:45;;;;;;;32.17;17.67;;;;;;;0.64;84.06;99635.27;1756781;80;21187;-60
2021/01/06 01:33:15;;;;;;;33.10;18.73;;;;;;;0.62;84.15;99635.71;1759513;80;21548;-59
2021/01/06 01:35:42;;;;;;;31.53;19.50;;;;;;;0.61;84.21;99632.19;1699103;83;21240;-58
2021/01/06 01:38:20;;;;;;;29.73;17.93;;;;;;;0.64;84.20;99627.31;1760273;79;21605;-58
2021/01/06 01:40:47;;;;;;;31.77;18.57;;;;;;;0.66;84.19;99630.39;1760444;79;21234;-60
2021/01/06 01:43:18;;;;;;;31.50;17.07;;;;;;;0.68;84.21;99620.63;1756900;80;21372;-57
2021/01/06 01:45:54;;;;;;;30.03;18.50;;;;;;;0.70;84.23;99624.14;1765115;80;21187;-58
2021/01/06 01:48:38;;;;;;;35.20;18.63;;;;;;;0.75;84.21;99627.64;1770666;79;21218;-57
2021/01/06 01:51:40;;;;;;;38.38;20.10;;;;;;;0.76;84.18;99623.22;1761721;79;21112;-57
2021/01/06 01:54:12;;;;;;;36.60;21.43;;;;;;;0.78;84.12;99614.78;1764612;80;21244;-59
2021/01/06 01:56:50;;;;;;;40.90;20.97;;;;;;;0.74;84.08;99610.43;1761600;79;23018;-57
2021/01/06 01:59:23;;;;;;;36.63;20.03;;;;;;;0.72;84.09;99612.21;1762298;80;21531;-59
2021/01/06 02:01:51;;;;;;;33.00;18.53;;;;;;;0.72;84.05;99618.39;1764427;79;21155;-55
2021/01/06 02:04:27;;;;;;;32.33;17.00;;;;;;;0.73;84.06;99617.95;1763374;80;21542;-57
2021/01/06 02:07:10;;;;;;;34.13;19.33;;;;;;;0.74;84.12;99614.41;1765290;80;22260;-56
2021/01/06 02:10:00;;;;;;;30.73;17.93;;;;;;;0.79;84.10;99615.66;1719192;80;21100;-59
2021/01/06 02:12:45;;;;;;;28.00;17.17;;;;;;;0.81;84.10;99604.61;1766529;79;21504;-59
2021/01/06 02:15:59;;;;;;;41.60;22.07;;;;;;;0.80;83.98;99599.75;1763720;80;21639;-59
2021/01/06 02:18:26;;;;;;;32.77;18.87;;;;;;;0.80;83.96;99610.80;1767305;79;21080;-58
2021/01/06 02:21:16;;;;;;;32.50;18.37;;;;;;;0.74;83.88;99606.02;1763760;79;21207;-58
2021/01/06 02:23:43;;;;;;;33.93;18.13;;;;;;;0.73;83.89;99611.32;1771557;79;21225;-57
2021/01/06 02:26:10;;;;;;;28.87;17.07;;;;;;;0.69;83.83;99611.79;1769645;79;21210;-58
2021/01/06 02:28:38;;;;;;;32.83;16.90;;;;;;;0.67;83.94;99608.30;1771194;79;21179;-58
2021/01/06 02:31:05;;;;;;;36.87;19.03;;;;;;;0.70;83.97;99615.31;1773488;79;21640;-59
2021/01/06 02:33:34;;;;;;;29.67;17.20;;;;;;;0.73;84.01;99610.00;1754921;79;22068;-59
2021/01/06 02:36:01;;;;;;;33.53;18.97;;;;;;;0.74;83.98;99611.31;1771034;79;21222;-58
2021/01/06 02:38:28;;;;;;;37.37;20.10;;;;;;;0.73;83.90;99610.88;1774622;79;21819;-59
2021/01/06 02:40:56;;;;;;;38.20;19.83;;;;;;;0.72;83.88;99610.89;1772508;79;21191;-59
2021/01/06 02:43:23;;;;;;;36.30;20.70;;;;;;;0.73;83.90;99617.95;1744279;80;21687;-58
2021/01/06 02:45:51;;;;;;;38.83;19.90;;;;;;;0.74;83.89;99609.11;1711060;82;21208;-59
2021/01/06 02:48:18;;;;;;;37.47;19.60;;;;;;;0.75;83.90;99610.42;1724194;81;21675;-58
2021/01/06 02:50:48;;;;;;;35.77;20.13;;;;;;;0.79;83.91;99613.02;1718686;81;21221;-58
2021/01/06 02:53:20;;;;;;;41.37;22.40;;;;;;;0.80;83.87;99607.70;1697149;81;21138;-59
2021/01/06 02:55:48;;;;;;;51.40;25.33;;;;;;;0.80;83.85;99606.83;1719642;81;21894;-58
2021/01/06 02:58:17;;;;;;;44.63;24.07;;;;;;;0.76;83.77;99615.28;1719743;81;22020;-59
2021/01/06 03:00:44;;;;;;;47.00;22.73;;;;;;;0.74;83.80;99607.34;1693981;83;21191;-59
2021/01/06 03:03:12;;;;;;;46.97;22.67;;;;;;;0.75;83.78;99613.52;1703900;82;21604;-58
2021/01/06 03:05:41;;;;;;;41.00;20.07;;;;;;;0.76;83.78;99608.66;1745540;80;21201;-59
2021/01/06 03:08:13;;;;;;;36.40;20.27;;;;;;;0.77;83.78;99611.70;1741461;80;21067;-58
2021/01/06 03:10:40;;;;;;;36.57;21.50;;;;;;;0.80;83.78;99601.52;1740223;80;21991;-58
2021/01/06 03:13:07;;;;;;;41.50;23.00;;;;;;;0.82;83.78;99593.12;1741048;80;21225;-59
2021/01/06 03:15:35;;;;;;;45.23;24.03;;;;;;;0.81;83.69;99600.19;1746910;80;21182;-59
2021/01/06 03:18:02;;;;;;;37.80;23.20;;;;;;;0.80;83.68;99604.17;1731602;80;21190;-59
2021/01/06 03:20:41;;;;;;;37.83;21.70;;;;;;;0.75;83.71;99599.83;1741585;80;21237;-59
2021/01/06 03:23:14;;;;;;;33.17;18.67;;;;;;;0.72;83.71;99601.17;1739135;80;22274;-58
2021/01/06 03:25:41;;;;;;;32.57;17.77;;;;;;;0.71;83.81;99599.41;1757689;79;21403;-60
2021/01/06 03:28:10;;;;;;;34.23;18.00;;;;;;;0.74;83.85;99606.02;1756156;79;21573;-59
2021/01/06 03:30:38;;;;;;;33.43;18.57;;;;;;;0.80;83.88;99600.20;1748034;80;21100;-59
2021/01/06 03:33:22;;;;;;;40.93;23.80;;;;;;;0.83;83.85;99600.17;1741573;80;21877;-59
2021/01/06 03:36:10;;;;;;;45.58;23.92;;;;;;;0.83;83.77;99590.45;1743438;80;21995;-58
2021/01/06 03:38:44;;;;;;;50.03;25.97;;;;;;;0.81;83.69;99591.36;1741571;79;21775;-59
2021/01/06 03:41:11;;;;;;;44.63;23.80;;;;;;;0.75;83.71;99597.62;1735923;79;21269;-60
2021/01/06 03:43:46;;;;;;;43.10;23.70;;;;;;;0.75;83.76;99602.92;1717330;81;21583;-60
2021/01/06 03:46:24;;;;;;;46.98;22.30;;;;;;;0.74;83.81;99598.06;1724188;80;21215;-59
2021/01/06 03:49:06;;;;;;;47.50;25.97;;;;;;;0.80;83.86;99597.11;1865693;75;26700;-60
2021/01/06 03:51:44;;;;;;;50.65;25.57;;;;;;;0.78;83.91;99608.61;1755753;79;21158;-60
2021/01/06 03:54:51;;;;;;;47.27;26.60;;;;;;;0.78;83.90;99606.84;1777856;78;21440;-61
2021/01/06 03:57:18;;;;;;;52.70;27.17;;;;;;;0.77;83.87;99603.75;1781518;78;21498;-60
2021/01/06 03:59:47;;;;;;;50.63;26.63;;;;;;;0.74;83.79;99602.04;1777708;78;21523;-60
2021/01/06 04:02:38;;;;;;;52.17;25.37;;;;;;;0.76;83.81;99611.30;1804336;78;21501;-60
2021/01/06 04:05:08;;;;;;;46.17;24.43;;;;;;;0.77;83.82;99614.83;1787159;78;21062;-60
2021/01/06 04:07:50;;;;;;;51.87;25.77;;;;;;;0.77;83.84;99616.16;1783672;78;22106;-60
2021/01/06 04:10:28;;;;;;;52.37;27.60;;;;;;;0.79;83.83;99620.97;1802822;78;21222;-60
2021/01/06 04:12:56;;;;;;;53.40;27.50;;;;;;;0.77;83.81;99617.48;1806392;78;21476;-59
2021/01/06 04:15:23;;;;;;;53.97;28.37;;;;;;;0.76;83.84;99623.22;1779108;78;21228;-60
2021/01/06 04:17:53;;;;;;;52.43;27.57;;;;;;;0.77;83.85;99622.30;1777616;78;21898;-60
2021/01/06 04:20:37;;;;;;;49.53;25.50;;;;;;;0.79;83.81;99628.91;1776230;79;21198;-60
2021/01/06 04:23:07;;;;;;;49.93;25.43;;;;;;;0.81;83.76;99628.02;1776161;79;21239;-61
2021/01/06 04:25:37;;;;;;;41.10;22.97;;;;;;;0.83;83.74;99629.33;1780654;79;21205;-60
2021/01/06 04:28:23;;;;;;;42.67;24.30;;;;;;;0.84;83.73;99626.66;1776296;79;21229;-60
2021/01/06 04:31:09;;;;;;;44.20;22.37;;;;;;;0.86;83.73;99630.15;1802895;78;21087;-60
2021/01/06 04:33:53;;;;;;;51.27;25.70;;;;;;;0.87;83.64;99625.73;1804539;78;22133;-60
2021/01/06 04:36:25;;;;;;;48.07;23.93;;;;;;;0.86;83.56;99624.84;1781537;78;21140;-60
2021/01/06 04:38:55;;;;;;;51.10;25.30;;;;;;;0.85;83.54;99623.57;1752189;79;21628;-60
2021/01/06 04:41:49;;;;;;;45.20;24.57;;;;;;;0.84;83.51;99625.34;1771976;78;21506;-60
2021/01/06 04:44:55;;;;;;;48.60;24.13;;;;;;;0.84;83.52;99617.84;1777116;78;21215;-61
2021/01/06 04:47:58;;;;;;;36.87;21.37;;;;;;;0.83;83.54;99613.42;1774136;78;22809;-60
2021/01/06 04:50:48;;;;;;;33.17;19.87;;;;;;;0.84;83.58;99631.96;1775878;78;21212;-61
2021/01/06 04:53:41;;;;;;;43.13;21.80;;;;;;;0.86;83.56;99632.80;1776136;78;21551;-60
2021/01/06 04:56:35;;;;;;;41.60;21.80;;;;;;;0.87;83.53;99621.31;1758056;80;20985;-60
2021/01/06 04:59:36;;;;;;;39.97;22.70;;;;;;;0.86;83.44;99631.92;1721728;79;21114;-61
2021/01/06 05:02:24;;;;;;;43.60;22.70;;;;;;;0.83;83.48;99633.30;1760378;79;21393;-60
2021/01/06 05:05:15;;;;;;;43.63;19.77;;;;;;;0.84;83.49;99632.41;1759954;79;21144;-61
2021/01/06 05:08:16;;;;;;;35.07;19.97;;;;;;;0.87;83.51;99637.20;1761050;80;21142;-61
2021/01/06 05:10:51;;;;;;;37.80;20.17;;;;;;;0.89;83.53;99646.02;1741466;79;21138;-60
2021/01/06 05:13:27;;;;;;;36.80;21.73;;;;;;;0.91;83.51;99640.27;1747121;79;21005;-60
2021/01/06 05:16:23;;;;;;;40.37;22.10;;;;;;;0.92;83.51;99638.05;1766477;79;21249;-60
2021/01/06 05:18:51;;;;;;;42.13;22.00;;;;;;;0.93;83.45;99645.56;1767878;79;21441;-58
2021/01/06 05:21:20;;;;;;;39.40;20.73;;;;;;;0.90;83.43;99638.95;1776713;78;21147;-58
2021/01/06 05:23:49;;;;;;;38.20;19.97;;;;;;;0.91;83.41;99640.72;1778005;78;21121;-59
2021/01/06 05:26:17;;;;;;;37.50;19.50;;;;;;;0.92;83.40;99645.13;1737541;78;21128;-59
2021/01/06 05:28:44;;;;;;;36.83;18.93;;;;;;;0.93;83.42;99648.21;1740570;80;21243;-59
2021/01/06 05:31:11;;;;;;;34.80;19.73;;;;;;;0.94;83.46;99649.94;1726012;79;21154;-59
2021/01/06 05:33:50;;;;;;;37.93;21.53;;;;;;;0.97;83.49;99649.47;1748051;80;21118;-60
2021/01/06 05:36:23;;;;;;;40.73;21.03;;;;;;;1.00;83.49;99648.12;1748854;79;21533;-59
2021/01/06 05:38:50;;;;;;;36.03;20.07;;;;;;;1.02;83.47;99649.43;1748308;79;21098;-60
2021/01/06 05:41:17;;;;;;;38.13;20.83;;;;;;;1.01;83.41;99649.87;1750920;79;21357;-60
2021/01/06 05:43:47;;;;;;;34.73;19.23;;;;;;;1.00;83.38;99644.59;1749162;79;21541;-59
2021/01/06 05:46:28;;;;;;;39.60;18.80;;;;;;;0.99;83.34;99639.73;1724511;80;21142;-59
2021/01/06 05:49:06;;;;;;;36.10;19.50;;;;;;;0.99;83.31;99634.44;1745243;79;21127;-60
2021/01/06 05:51:36;;;;;;;34.60;18.60;;;;;;;0.98;83.40;99633.13;1739089;80;21219;-59
2021/01/06 05:54:23;;;;;;;35.23;18.73;;;;;;;0.99;83.42;99639.73;1737660;80;21442;-60
2021/01/06 05:57:12;;;;;;;35.43;18.53;;;;;;;1.01;83.45;99646.34;1736273;80;21233;-59
2021/01/06 05:59:48;;;;;;;44.13;20.53;;;;;;;1.00;83.49;99648.56;1736591;80;21186;-60
2021/01/06 06:02:39;;;;;;;41.27;22.10;;;;;;;0.98;83.48;99650.34;1731776;80;21452;-59
2021/01/06 06:05:34;;;;;;;43.43;22.03;;;;;;;0.97;83.50;99649.47;1730521;80;23004;-60
2021/01/06 06:08:24;;;;;;;;;;;;;;;0.97;83.47;99658.74;1735802;80;22570;-59
2021/01/06 06:11:36;;;;;;;36.43;18.03;;;;;;;0.96;83.53;99654.33;1733593;80;21013;-59
2021/01/06 06:14:46;;;;;;;33.57;17.87;;;;;;;0.97;83.59;99660.52;1738890;80;21223;-60
2021/01/06 06:17:37;;;;;;;33.33;19.83;;;;;;;0.99;83.65;99664.91;1733778;80;21557;-59
2021/01/06 06:20:16;;;;;;;39.13;19.30;;;;;;;1.02;83.69;99664.01;1738773;80;21234;-59
2021/01/06 06:23:33;;;;;;;39.97;19.83;;;;;;;1.03;83.65;99663.09;1735257;80;23619;-59
2021/01/06 06:26:22;;;;;;;41.77;21.63;;;;;;;1.04;83.66;99664.84;1736177;80;22000;-59
2021/01/06 06:29:03;;;;;;;42.17;19.33;;;;;;;1.04;83.64;99663.52;1735170;80;21600;-59
2021/01/06 06:31:33;;;;;;;38.47;17.67;;;;;;;1.05;83.58;99669.25;1733550;80;21639;-61
2021/01/06 06:34:06;;;;;;;35.83;18.30;;;;;;;1.04;83.55;99668.38;1730728;80;21609;-59
2021/01/06 06:36:38;;;;;;;36.33;18.07;;;;;;;1.05;83.56;99670.58;1736000;80;21933;-60
2021/01/06 06:39:28;;;;;;;35.00;18.50;;;;;;;1.07;83.57;99672.77;1735662;80;21505;-60
2021/01/06 06:42:16;;;;;;;32.07;17.07;;;;;;;1.09;83.63;99677.17;1739881;80;21189;-59
2021/01/06 06:44:54;;;;;;;35.30;17.50;;;;;;;1.10;83.52;99675.41;1738555;80;21282;-59
2021/01/06 06:47:51;;;;;;;34.10;18.97;;;;;;;1.10;83.51;99674.95;1735121;80;21596;-59
2021/01/06 06:50:57;;;;;;;37.97;19.17;;;;;;;1.10;83.52;99680.70;1669487;84;21449;-60
2021/01/06 06:53:58;;;;;;;38.17;19.60;;;;;;;1.14;83.47;99667.38;1865707;75;28213;-64
2021/01/06 06:57:03;;;;;;;33.13;18.90;;;;;;;1.11;83.46;99673.16;1776708;78;21724;-62
2021/01/06 06:59:59;;;;;;;40.30;18.30;;;;;;;1.12;83.55;99674.91;1760505;78;21774;-61
2021/01/06 07:02:26;;;;;;;38.30;18.43;;;;;;;1.15;83.51;99678.87;1696753;82;21209;-62
2021/01/06 07:07:44;;;;;;;39.83;20.87;;;;;;;1.21;83.54;99676.13;1865686;75;26583;-61
2021/01/06 07:10:27;;;;;;;39.67;20.17;;;;;;;1.18;83.48;99673.54;1840869;76;21581;-61
2021/01/06 07:13:06;;;;;;;40.17;20.27;;;;;;;1.17;83.44;99677.08;1843086;76;21393;-60
2021/01/06 07:15:50;;;;;;;44.13;20.47;;;;;;;1.14;83.43;99683.29;1819831;77;21559;-61
2021/01/06 07:18:33;;;;;;;35.20;19.55;;;;;;;1.16;83.43;99685.93;1842999;76;21165;-63
2021/01/06 07:21:17;;;;;;;35.07;18.37;;;;;;;1.13;83.44;99677.55;1843693;76;21181;-60
2021/01/06 07:23:49;;;;;;;32.63;16.77;;;;;;;1.14;83.46;99682.41;1843892;76;21072;-61
2021/01/06 07:26:31;;;;;;;32.57;17.77;;;;;;;1.17;83.53;99680.18;1852080;76;21259;-62
2021/01/06 07:29:00;;;;;;;45.67;19.47;;;;;;;1.19;83.53;99682.38;1844216;76;20944;-61
2021/01/06 07:31:31;;;;;;;36.90;19.77;;;;;;;1.19;83.55;99676.62;1846026;76;21482;-61
2021/01/06 07:34:01;;;;;;;41.37;20.50;;;;;;;1.20;83.58;99681.00;1785691;79;21165;-64
2021/01/06 07:36:35;;;;;;;46.17;20.40;;;;;;;1.21;83.54;99677.45;1779795;78;22350;-61
2021/01/06 07:39:02;;;;;;;41.00;20.23;;;;;;;1.20;83.50;99679.67;1805486;78;21340;-62
2021/01/06 07:41:30;;;;;;;38.80;19.90;;;;;;;1.21;83.48;99684.09;1811566;77;21147;-60
2021/01/06 07:44:31;;;;;;;35.67;17.80;;;;;;;1.23;83.50;99681.42;1770304;79;21174;-60
2021/01/06 07:47:09;;;;;;;37.97;19.67;;;;;;;1.25;83.52;99683.62;1777471;79;21203;-61
2021/01/06 07:49:53;;;;;;;37.03;18.90;;;;;;;1.28;83.53;99681.79;1780032;79;21198;-61
2021/01/06 07:52:38;;;;;;;43.20;20.37;;;;;;;1.29;83.53;99696.80;1775016;78;22049;-61
2021/01/06 07:55:22;;;;;;;39.08;20.05;;;;;;;1.29;83.57;99698.13;1776844;79;21190;-60
2021/01/06 07:57:58;;;;;;;40.05;22.05;;;;;;;1.30;83.58;99696.36;1761790;79;21183;-61
2021/01/06 08:00:38;;;;;;;41.10;20.00;;;;;;;1.31;83.54;99691.05;1867617;75;26660;-62
2021/01/06 08:03:22;;;;;;;36.60;17.50;;;;;;;1.26;83.53;99694.21;1844137;76;21009;-60
2021/01/06 08:05:56;;;;;;;33.00;17.40;;;;;;;1.27;83.53;99694.64;1839246;76;21547;-62
2021/01/06 08:08:23;;;;;;;33.20;15.47;;;;;;;1.30;83.57;99700.34;1844014;76;20965;-63
2021/01/06 08:10:51;;;;;;;29.67;16.13;;;;;;;1.31;83.56;99699.00;1846038;76;21494;-60
2021/01/06 08:13:24;;;;;;;33.87;16.53;;;;;;;1.34;83.54;99699.42;1811734;77;20957;-60
2021/01/06 08:15:56;;;;;;;35.00;17.87;;;;;;;1.35;83.56;99700.73;1845947;76;20974;-60
2021/01/06 08:19:00;;;;;;;31.37;18.33;;;;;;;1.36;83.55;99705.59;1839791;76;22134;-63
2021/01/06 08:22:02;;;;;;;35.63;18.07;;;;;;;1.36;83.62;99705.11;1847432;76;21543;-60
2021/01/06 08:25:03;;;;;;;39.50;19.50;;;;;;;1.37;83.63;99713.95;1843916;76;21599;-63
2021/01/06 08:27:37;;;;;;;33.13;18.27;;;;;;;1.36;83.57;99715.72;1825486;76;21075;-60
2021/01/06 08:30:18;;;;;;;31.87;16.60;;;;;;;1.37;83.48;99716.16;1844385;76;21602;-61
2021/01/06 08:32:46;;;;;;;38.80;18.80;;;;;;;1.39;83.46;99715.70;1834839;76;22270;-61
2021/01/06 08:35:20;;;;;;;33.07;15.93;;;;;;;1.40;83.52;99709.50;1848385;76;21091;-60
2021/01/06 08:37:50;;;;;;;32.57;15.87;;;;;;;1.43;83.54;99710.80;1844025;76;21118;-64
2021/01/06 08:40:35;;;;;;;29.17;16.37;;;;;;;1.45;83.52;99710.31;1779906;79;21119;-64
2021/01/06 08:43:09;;;;;;;35.70;18.70;;;;;;;1.48;83.51;99702.77;1730899;80;21112;-63
2021/01/06 08:45:37;;;;;;;34.67;18.23;;;;;;;1.48;83.51;99704.98;1756015;79;22842;-61
2021/01/06 08:48:25;;;;;;;38.67;19.23;;;;;;;1.49;83.49;99717.34;1721477;79;21206;-61
2021/01/06 08:50:54;;;;;;;34.03;16.87;;;;;;;1.47;83.41;99717.80;1723779;79;21677;-61
2021/01/06 08:53:35;;;;;;;32.43;17.33;;;;;;;1.47;83.44;99719.58;1755007;79;21189;-61
2021/01/06 08:56:13;;;;;;;31.63;17.07;;;;;;;1.48;83.38;99723.99;1754143;79;21178;-64
2021/01/06 08:58:47;;;;;;;29.03;16.53;;;;;;;1.49;83.38;99716.47;1778823;79;21559;-64
2021/01/06 09:01:36;;;;;;;32.73;16.77;;;;;;;1.49;83.35;99710.72;1780146;79;21656;-63
2021/01/06 09:04:12;;;;;;;27.73;15.20;;;;;;;1.53;83.38;99712.89;1778172;79;21211;-61
2021/01/06 09:07:01;;;;;;;30.40;16.33;;;;;;;1.53;83.37;99710.24;1775284;79;21218;-63
2021/01/06 09:10:15;;;;;;;31.97;17.83;;;;;;;1.56;83.41;99709.30;1737898;80;21546;-62
2021/01/06 09:13:07;;;;;;;40.60;17.97;;;;;;;1.57;83.39;99703.10;1775476;78;22092;-62
2021/01/06 09:15:40;;;;;;;38.43;20.33;;;;;;;1.58;83.34;99702.21;1771899;78;21755;-63
2021/01/06 09:18:16;;;;;;;36.73;18.17;;;;;;;1.56;83.28;99700.90;1775872;79;22553;-61
2021/01/06 09:21:41;;;;;;;35.50;18.33;;;;;;;1.55;83.24;99700.47;1776049;79;21627;-63
2021/01/06 09:24:25;;;;;;;32.17;15.80;;;;;;;1.57;83.27;99703.10;1718218;81;21199;-64
2021/01/06 09:26:55;;;;;;;35.20;17.97;;;;;;;1.59;83.29;99702.64;1720143;82;21381;-61
2021/01/06 09:29:24;;;;;;;34.20;18.27;;;;;;;1.62;83.26;99703.91;1718752;82;21243;-62
2021/01/06 09:31:56;;;;;;;34.63;17.00;;;;;;;1.66;83.23;99706.97;1709145;82;21674;-61
2021/01/06 09:34:30;;;;;;;35.53;19.50;;;;;;;1.64;83.13;99710.96;1717886;81;21181;-61
2021/01/06 09:36:57;;;;;;;41.75;21.10;;;;;;;1.62;83.15;99703.91;1724124;82;21498;-60
2021/01/06 09:39:27;;;;;;;33.97;18.67;;;;;;;1.61;83.19;99702.19;1719327;82;21249;-63
2021/01/06 09:41:57;;;;;;;40.93;18.90;;;;;;;1.60;83.19;99698.66;1712174;82;21205;-60
2021/01/06 09:44:24;;;;;;;35.37;17.10;;;;;;;1.59;83.17;99698.22;1698508;82;21235;-63
2021/01/06 09:46:59;;;;;;;34.47;17.87;;;;;;;1.60;83.19;99709.71;1698333;82;21421;-60
2021/01/06 09:49:40;;;;;;;31.73;16.27;;;;;;;1.63;83.16;99700.36;1669454;83;21231;-62
2021/01/06 09:52:16;;;;;;;32.67;16.13;;;;;;;1.66;83.14;99697.68;1696125;82;21783;-62
2021/01/06 09:55:33;;;;;;;31.47;17.27;;;;;;;1.73;83.13;99694.92;1793809;78;26751;-62
2021/01/06 09:58:07;;;;;;;30.40;17.00;;;;;;;1.72;83.16;99694.48;1768954;79;21217;-63
2021/01/06 10:01:16;;;;;;;34.55;17.05;;;;;;;1.74;83.11;99694.03;1716747;81;22692;-63
2021/01/06 10:03:45;;;;;;;31.63;17.70;;;;;;;1.75;83.28;99695.78;1735766;81;21242;-61
2021/01/06 10:06:52;;;;;;;31.07;17.67;;;;;;;1.75;83.01;99692.25;1713842;81;21221;-64
2021/01/06 10:09:47;;;;;;;30.03;16.80;;;;;;;1.76;83.01;99697.99;1738122;80;21212;-64
2021/01/06 10:12:41;;;;;;;30.00;15.80;;;;;;;1.74;82.97;99696.68;1728287;81;21688;-62
2021/01/06 10:15:55;;;;;;;27.40;15.43;;;;;;;1.74;82.94;99699.78;1710868;82;21577;-64
2021/01/06 10:18:31;;;;;;;24.67;13.47;;;;;;;1.77;82.92;99705.06;1716562;81;21187;-64
2021/01/06 10:21:45;;;;;;;24.13;13.37;;;;;;;1.79;82.93;99703.23;1737886;81;21183;-63
2021/01/06 10:24:58;;;;;;;29.83;14.90;;;;;;;1.82;82.90;99693.92;1715478;82;21202;-61
2021/01/06 10:27:33;;;;;;;27.37;13.93;;;;;;;1.84;82.95;99696.11;1715777;81;21204;-63
2021/01/06 10:30:10;;;;;;;28.80;14.93;;;;;;;1.86;82.94;99698.30;1689424;82;21332;-64
2021/01/06 10:33:04;;;;;;;28.20;15.20;;;;;;;1.88;82.92;99701.78;1721482;82;21135;-64
2021/01/06 10:35:59;;;;;;;29.53;14.60;;;;;;;1.90;82.93;99696.89;1716777;82;22015;-61
2021/01/06 10:38:44;;;;;;;27.42;13.95;;;;;;;1.92;82.85;99704.84;1721013;82;21280;-61
2021/01/06 10:41:23;;;;;;;32.77;15.60;;;;;;;1.90;82.77;99700.88;1716158;80;21198;-63
2021/01/06 10:43:52;;;;;;;30.17;14.67;;;;;;;1.94;82.70;99700.84;1706827;81;21402;-61
2021/01/06 10:46:44;;;;;;;26.73;14.93;;;;;;;1.96;82.70;99697.24;1731540;81;21135;-63
2021/01/06 10:49:20;;;;;;;26.43;14.07;;;;;;;1.97;82.67;99706.97;1677369;83;21665;-61
2021/01/06 10:52:03;;;;;;;28.80;16.00;;;;;;;2.03;82.61;99701.59;1824622;75;26668;-60
2021/01/06 10:54:59;;;;;;;29.20;15.10;;;;;;;2.02;82.62;99717.09;1789039;77;21154;-61
2021/01/06 10:57:40;;;;;;;33.27;17.33;;;;;;;2.02;82.58;99726.38;1790664;77;21448;-61
2021/01/06 11:00:19;;;;;;;32.83;16.37;;;;;;;2.01;82.51;99727.28;1790287;77;21215;-63
2021/01/06 11:03:43;;;;;;;36.50;17.90;;;;;;;1.99;82.47;99729.06;1793557;77;21178;-62
2021/01/06 11:06:33;;;;;;;37.77;17.20;;;;;;;1.95;82.42;99726.05;1792548;77;21171;-62
2021/01/06 11:09:21;;;;;;;39.73;19.43;;;;;;;1.94;82.43;99722.08;1797279;77;21000;-62
2021/01/06 11:12:46;;;;;;;35.87;17.17;;;;;;;1.94;82.46;99716.77;1789100;77;22818;-62
2021/01/06 11:15:51;;;;;;;35.67;16.57;;;;;;;1.94;82.43;99711.46;1790228;77;20981;-62
2021/01/06 11:18:30;;;;;;;36.03;18.70;;;;;;;1.94;82.45;99706.16;1792515;77;21817;-60
2021/01/06 11:21:21;;;;;;;39.63;19.17;;;;;;;1.94;82.52;99697.74;1793825;77;21099;-61
2021/01/06 11:23:58;;;;;;;44.77;20.50;;;;;;;1.95;82.52;99691.53;1790922;77;21565;-60
2021/01/06 11:26:31;;;;;;;45.07;20.97;;;;;;;1.97;82.53;99691.48;1802864;77;21365;-63
2021/01/06 11:29:18;;;;;;;43.10;20.20;;;;;;;1.97;82.52;99694.14;1792545;77;22240;-63
2021/01/06 11:32:03;;;;;;;44.87;21.87;;;;;;;1.96;82.54;99694.59;1794386;77;21160;-61
2021/01/06 11:34:35;;;;;;;46.83;22.50;;;;;;;1.96;82.54;99691.09;1811324;77;21085;-61
2021/01/06 11:37:06;;;;;;;48.33;22.27;;;;;;;1.94;82.53;99691.55;1806225;77;21092;-61
2021/01/06 11:39:42;;;;;;;41.67;19.50;;;;;;;1.97;82.54;99683.08;1810973;77;23111;-61
2021/01/06 11:42:20;;;;;;;45.83;21.17;;;;;;;2.00;82.57;99684.37;1724572;80;21445;-61
2021/01/06 11:45:17;;;;;;;38.17;18.87;;;;;;;2.03;82.51;99686.11;1722730;80;21233;-61
2021/01/06 11:47:53;;;;;;;36.23;18.50;;;;;;;2.03;82.48;99686.98;1769788;79;21150;-61
2021/01/06 11:50:37;;;;;;;39.37;19.57;;;;;;;2.04;82.56;99693.17;1768594;78;21200;-61
2021/01/06 11:53:43;;;;;;;45.03;20.43;;;;;;;2.04;82.55;99698.01;1761225;79;21627;-63
2021/01/06 11:56:25;;;;;;;45.80;18.87;;;;;;;2.04;82.55;99697.16;1762676;78;21188;-61
2021/01/06 11:59:16;;;;;;;47.80;21.53;;;;;;;2.04;82.58;99699.81;1717017;80;21196;-62
2021/01/06 12:02:28;;;;;;;45.50;21.87;;;;;;;2.02;82.50;99701.16;1767577;78;21120;-63
2021/01/06 12:05:20;;;;;;;42.40;20.80;;;;;;;2.00;82.50;99698.09;1743591;80;21659;-63
2021/01/06 12:07:56;;;;;;;45.30;19.27;;;;;;;1.99;82.50;99688.37;1742067;80;21394;-60
2021/01/06 12:10:46;;;;;;;38.70;18.40;;;;;;;2.00;82.54;99685.70;1736133;80;21228;-62
2021/01/06 12:13:40;;;;;;;39.47;19.10;;;;;;;2.01;82.56;99699.40;1732067;80;21306;-61
2021/01/06 12:16:43;;;;;;;36.05;18.60;;;;;;;2.03;82.58;99704.24;1743917;80;21153;-61
2021/01/06 12:20:05;;;;;;;37.37;17.70;;;;;;;2.05;82.56;99706.41;1736129;80;21550;-61
2021/01/06 12:22:34;;;;;;;40.10;17.80;;;;;;;2.05;82.61;99706.41;1741981;80;23568;-61
2021/01/06 12:25:30;;;;;;;39.13;19.27;;;;;;;2.04;82.49;99710.44;1737246;80;21199;-63
2021/01/06 12:28:07;;;;;;;39.00;17.93;;;;;;;2.02;82.47;99704.27;1737729;80;21179;-62